sensor_id;sensor_type;location;lat;lon;timestamp;temperature;humidity
19552;DHT22;9921;47.186;9.778;2023-05-27T00:01:28;15.70;99.90
19552;DHT22;9921;47.186;9.778;2023-05-27T00:03:55;15.60;99.90
19552;DHT22;9921;47.186;9.778;2023-05-27T00:06:23;15.60;99.90
19552;DHT22;9921;47.186;9.778;2023-05-27T00:08:50;15.40;99.90
19552;DHT22;9921;47.186;9.778;2023-05-27T00:11:17;15.40;99.90
19552;DHT22;9921;47.186;9.778;2023-05-27T00:13:44;15.50;99.90
19552;DHT22;9921;47.186;9.778;2023-05-27T00:16:10;15.40;99.90
19552;DHT22;9921;47.186;9.778;2023-05-27T00:18:37;15.40;99.90
19552;DHT22;9921;47.186;9.778;2023-05-27T00:21:04;15.40;99.90
19552;DHT22;9921;47.186;9.778;2023-05-27T00:23:33;15.40;99.90
19552;DHT22;9921;47.186;9.778;2023-05-27T00:25:59;15.40;99.90
19552;DHT22;9921;47.186;9.778;2023-05-27T00:28:26;15.40;99.90
19552;DHT22;9921;47.186;9.778;2023-05-27T00:30:54;15.50;99.90
19552;DHT22;9921;47.186;9.778;2023-05-27T00:33:21;15.50;99.90
19552;DHT22;9921;47.186;9.778;2023-05-27T00:35:48;15.50;99.90
19552;DHT22;9921;47.186;9.778;2023-05-27T00:38:15;15.50;99.90
19552;DHT22;9921;47.186;9.778;2023-05-27T00:40:43;15.30;99.90
19552;DHT22;9921;47.186;9.778;2023-05-27T00:43:11;15.20;99.90
19552;DHT22;9921;47.186;9.778;2023-05-27T00:45:37;15.20;99.90
19552;DHT22;9921;47.186;9.778;2023-05-27T00:48:04;15.30;99.90
19552;DHT22;9921;47.186;9.778;2023-05-27T00:50:31;15.20;99.90
19552;DHT22;9921;47.186;9.778;2023-05-27T00:52:58;15.30;99.90
19552;DHT22;9921;47.186;9.778;2023-05-27T00:55:25;15.20;99.90
19552;DHT22;9921;47.186;9.778;2023-05-27T00:57:54;15.20;99.90
19552;DHT22;9921;47.186;9.778;2023-05-27T01:00:21;15.20;99.90
19552;DHT22;9921;47.186;9.778;2023-05-27T01:02:48;15.30;99.90
19552;DHT22;9921;47.186;9.778;2023-05-27T01:05:17;15.30;99.90
19552;DHT22;9921;47.186;9.778;2023-05-27T01:08:03;15.30;99.90
19552;DHT22;9921;47.186;9.778;2023-05-27T01:10:36;15.30;99.90
19552;DHT22;9921;47.186;9.778;2023-05-27T01:13:13;15.40;99.90
19552;DHT22;9921;47.186;9.778;2023-05-27T01:15:42;15.30;99.90
19552;DHT22;9921;47.186;9.778;2023-05-27T01:18:11;15.40;99.90
19552;DHT22;9921;47.186;9.778;2023-05-27T01:20:42;15.30;99.90
19552;DHT22;9921;47.186;9.778;2023-05-27T01:23:12;15.40;99.90
19552;DHT22;9921;47.186;9.778;2023-05-27T01:25:39;15.30;99.90
19552;DHT22;9921;47.186;9.778;2023-05-27T01:28:05;15.30;99.90
19552;DHT22;9921;47.186;9.778;2023-05-27T01:30:32;15.20;99.90
19552;DHT22;9921;47.186;9.778;2023-05-27T01:33:03;14.90;99.90
19552;DHT22;9921;47.186;9.778;2023-05-27T01:35:41;14.90;99.90
19552;DHT22;9921;47.186;9.778;2023-05-27T01:38:12;14.90;99.90
19552;DHT22;9921;47.186;9.778;2023-05-27T01:40:40;14.90;99.90
19552;DHT22;9921;47.186;9.778;2023-05-27T01:43:09;14.90;99.90
19552;DHT22;9921;47.186;9.778;2023-05-27T01:45:36;14.90;99.90
19552;DHT22;9921;47.186;9.778;2023-05-27T01:48:03;14.90;99.90
19552;DHT22;9921;47.186;9.778;2023-05-27T01:50:30;14.90;99.90
19552;DHT22;9921;47.186;9.778;2023-05-27T01:52:59;14.80;99.90
19552;DHT22;9921;47.186;9.778;2023-05-27T01:55:27;14.90;99.90
19552;DHT22;9921;47.186;9.778;2023-05-27T01:57:54;14.90;99.90
19552;DHT22;9921;47.186;9.778;2023-05-27T02:00:21;14.90;99.90
19552;DHT22;9921;47.186;9.778;2023-05-27T02:02:48;14.90;99.90
19552;DHT22;9921;47.186;9.778;2023-05-27T02:05:15;14.80;99.90
19552;DHT22;9921;47.186;9.778;2023-05-27T02:07:42;14.70;99.90
19552;DHT22;9921;47.186;9.778;2023-05-27T02:10:10;14.80;99.90
19552;DHT22;9921;47.186;9.778;2023-05-27T02:12:38;14.80;99.90
19552;DHT22;9921;47.186;9.778;2023-05-27T02:15:06;14.90;99.90
19552;DHT22;9921;47.186;9.778;2023-05-27T02:17:33;15.00;99.90
19552;DHT22;9921;47.186;9.778;2023-05-27T02:20:00;15.00;99.90
19552;DHT22;9921;47.186;9.778;2023-05-27T02:22:29;14.80;99.90
19552;DHT22;9921;47.186;9.778;2023-05-27T02:24:56;14.60;99.90
19552;DHT22;9921;47.186;9.778;2023-05-27T02:27:23;14.70;99.90
19552;DHT22;9921;47.186;9.778;2023-05-27T02:29:51;14.80;99.90
19552;DHT22;9921;47.186;9.778;2023-05-27T02:32:18;14.90;99.90
19552;DHT22;9921;47.186;9.778;2023-05-27T02:34:44;14.90;99.90
19552;DHT22;9921;47.186;9.778;2023-05-27T02:37:11;14.90;99.90
19552;DHT22;9921;47.186;9.778;2023-05-27T02:39:38;14.90;99.90
19552;DHT22;9921;47.186;9.778;2023-05-27T02:42:05;15.00;99.90
19552;DHT22;9921;47.186;9.778;2023-05-27T02:44:32;15.00;99.90
19552;DHT22;9921;47.186;9.778;2023-05-27T02:47:00;15.00;99.90
19552;DHT22;9921;47.186;9.778;2023-05-27T02:49:27;15.00;99.90
19552;DHT22;9921;47.186;9.778;2023-05-27T02:51:54;15.00;99.90
19552;DHT22;9921;47.186;9.778;2023-05-27T02:54:21;14.90;99.90
19552;DHT22;9921;47.186;9.778;2023-05-27T02:56:48;14.90;99.90
19552;DHT22;9921;47.186;9.778;2023-05-27T02:59:14;14.90;99.90
19552;DHT22;9921;47.186;9.778;2023-05-27T03:01:42;14.90;99.90
19552;DHT22;9921;47.186;9.778;2023-05-27T03:04:10;14.90;99.90
19552;DHT22;9921;47.186;9.778;2023-05-27T03:06:37;14.90;99.90
19552;DHT22;9921;47.186;9.778;2023-05-27T03:09:04;14.90;99.90
19552;DHT22;9921;47.186;9.778;2023-05-27T03:11:32;14.80;99.90
19552;DHT22;9921;47.186;9.778;2023-05-27T03:13:59;14.80;99.90
19552;DHT22;9921;47.186;9.778;2023-05-27T03:16:26;14.80;99.90
19552;DHT22;9921;47.186;9.778;2023-05-27T03:18:53;14.70;99.90
19552;DHT22;9921;47.186;9.778;2023-05-27T03:21:21;14.60;99.90
19552;DHT22;9921;47.186;9.778;2023-05-27T03:23:48;14.50;99.90
19552;DHT22;9921;47.186;9.778;2023-05-27T03:26:15;14.40;99.90
19552;DHT22;9921;47.186;9.778;2023-05-27T03:28:42;14.30;99.90
19552;DHT22;9921;47.186;9.778;2023-05-27T03:31:08;14.20;99.90
19552;DHT22;9921;47.186;9.778;2023-05-27T03:33:38;14.20;99.90
19552;DHT22;9921;47.186;9.778;2023-05-27T03:36:05;14.20;99.90
19552;DHT22;9921;47.186;9.778;2023-05-27T03:38:33;14.20;99.90
19552;DHT22;9921;47.186;9.778;2023-05-27T03:41:00;14.20;99.90
19552;DHT22;9921;47.186;9.778;2023-05-27T03:43:27;14.10;99.90
19552;DHT22;9921;47.186;9.778;2023-05-27T03:45:54;14.10;99.90
19552;DHT22;9921;47.186;9.778;2023-05-27T03:48:21;14.10;99.90
19552;DHT22;9921;47.186;9.778;2023-05-27T03:50:48;14.10;99.90
19552;DHT22;9921;47.186;9.778;2023-05-27T03:53:14;14.20;99.90
19552;DHT22;9921;47.186;9.778;2023-05-27T03:55:43;14.20;99.90
19552;DHT22;9921;47.186;9.778;2023-05-27T03:58:09;14.30;99.90
19552;DHT22;9921;47.186;9.778;2023-05-27T04:00:39;14.30;99.90
19552;DHT22;9921;47.186;9.778;2023-05-27T04:03:06;14.30;99.90
19552;DHT22;9921;47.186;9.778;2023-05-27T04:05:33;14.30;99.90
19552;DHT22;9921;47.186;9.778;2023-05-27T04:08:00;14.30;99.90
19552;DHT22;9921;47.186;9.778;2023-05-27T04:10:27;14.30;99.90
19552;DHT22;9921;47.186;9.778;2023-05-27T04:12:55;14.30;99.90
19552;DHT22;9921;47.186;9.778;2023-05-27T04:15:22;14.20;99.90
19552;DHT22;9921;47.186;9.778;2023-05-27T04:17:49;14.20;99.90
19552;DHT22;9921;47.186;9.778;2023-05-27T04:20:15;14.10;99.90
19552;DHT22;9921;47.186;9.778;2023-05-27T04:22:43;14.20;99.90
19552;DHT22;9921;47.186;9.778;2023-05-27T04:25:10;14.10;99.90
19552;DHT22;9921;47.186;9.778;2023-05-27T04:27:37;14.20;99.90
19552;DHT22;9921;47.186;9.778;2023-05-27T04:30:07;14.10;99.90
19552;DHT22;9921;47.186;9.778;2023-05-27T04:32:33;14.10;99.90
19552;DHT22;9921;47.186;9.778;2023-05-27T04:35:04;14.10;99.90
19552;DHT22;9921;47.186;9.778;2023-05-27T04:37:33;14.10;99.90
19552;DHT22;9921;47.186;9.778;2023-05-27T04:40:02;14.20;99.90
19552;DHT22;9921;47.186;9.778;2023-05-27T04:42:31;14.20;99.90
19552;DHT22;9921;47.186;9.778;2023-05-27T04:45:01;14.10;99.90
19552;DHT22;9921;47.186;9.778;2023-05-27T04:47:30;14.20;99.90
19552;DHT22;9921;47.186;9.778;2023-05-27T04:49:57;14.20;99.90
19552;DHT22;9921;47.186;9.778;2023-05-27T04:52:26;14.10;99.90
19552;DHT22;9921;47.186;9.778;2023-05-27T04:54:53;14.10;99.90
19552;DHT22;9921;47.186;9.778;2023-05-27T04:57:20;14.10;99.90
19552;DHT22;9921;47.186;9.778;2023-05-27T04:59:47;14.20;99.90
19552;DHT22;9921;47.186;9.778;2023-05-27T05:02:25;14.20;99.90
19552;DHT22;9921;47.186;9.778;2023-05-27T05:05:01;14.30;99.90
19552;DHT22;9921;47.186;9.778;2023-05-27T05:07:28;14.30;99.90
19552;DHT22;9921;47.186;9.778;2023-05-27T05:09:55;14.40;99.90
19552;DHT22;9921;47.186;9.778;2023-05-27T05:12:22;14.40;99.90
19552;DHT22;9921;47.186;9.778;2023-05-27T05:14:49;14.40;99.90
19552;DHT22;9921;47.186;9.778;2023-05-27T05:17:16;14.50;99.90
19552;DHT22;9921;47.186;9.778;2023-05-27T05:19:43;14.50;99.90
19552;DHT22;9921;47.186;9.778;2023-05-27T05:22:11;14.50;99.90
19552;DHT22;9921;47.186;9.778;2023-05-27T05:24:39;14.50;99.90
19552;DHT22;9921;47.186;9.778;2023-05-27T05:27:06;14.50;99.90
19552;DHT22;9921;47.186;9.778;2023-05-27T05:29:33;14.60;99.90
19552;DHT22;9921;47.186;9.778;2023-05-27T05:31:59;14.60;99.90
19552;DHT22;9921;47.186;9.778;2023-05-27T05:34:26;14.60;99.90
19552;DHT22;9921;47.186;9.778;2023-05-27T05:36:53;14.50;99.90
19552;DHT22;9921;47.186;9.778;2023-05-27T05:39:22;14.40;99.90
19552;DHT22;9921;47.186;9.778;2023-05-27T05:41:49;14.40;99.90
19552;DHT22;9921;47.186;9.778;2023-05-27T05:44:16;14.50;99.90
19552;DHT22;9921;47.186;9.778;2023-05-27T05:46:43;14.50;99.90
19552;DHT22;9921;47.186;9.778;2023-05-27T05:49:10;14.40;99.90
19552;DHT22;9921;47.186;9.778;2023-05-27T05:51:36;14.40;99.90
19552;DHT22;9921;47.186;9.778;2023-05-27T05:54:03;14.40;99.90
19552;DHT22;9921;47.186;9.778;2023-05-27T05:56:32;14.40;99.90
19552;DHT22;9921;47.186;9.778;2023-05-27T05:58:59;14.40;99.90
19552;DHT22;9921;47.186;9.778;2023-05-27T06:01:26;14.40;99.90
19552;DHT22;9921;47.186;9.778;2023-05-27T06:03:53;14.50;99.90
19552;DHT22;9921;47.186;9.778;2023-05-27T06:06:20;14.50;99.90
19552;DHT22;9921;47.186;9.778;2023-05-27T06:08:47;14.60;99.90
19552;DHT22;9921;47.186;9.778;2023-05-27T06:11:14;14.70;99.90
19552;DHT22;9921;47.186;9.778;2023-05-27T06:13:42;14.80;99.90
19552;DHT22;9921;47.186;9.778;2023-05-27T06:16:09;15.00;99.90
19552;DHT22;9921;47.186;9.778;2023-05-27T06:18:36;15.10;99.90
19552;DHT22;9921;47.186;9.778;2023-05-27T06:21:03;15.20;99.90
19552;DHT22;9921;47.186;9.778;2023-05-27T06:23:30;15.30;99.90
19552;DHT22;9921;47.186;9.778;2023-05-27T06:25:57;15.30;99.90
19552;DHT22;9921;47.186;9.778;2023-05-27T06:28:24;15.30;99.90
19552;DHT22;9921;47.186;9.778;2023-05-27T06:30:52;15.30;99.90
19552;DHT22;9921;47.186;9.778;2023-05-27T06:33:19;15.20;99.90
19552;DHT22;9921;47.186;9.778;2023-05-27T06:35:46;15.20;99.90
19552;DHT22;9921;47.186;9.778;2023-05-27T06:38:12;15.20;99.90
19552;DHT22;9921;47.186;9.778;2023-05-27T06:40:39;15.30;99.90
19552;DHT22;9921;47.186;9.778;2023-05-27T06:43:06;15.30;99.90
19552;DHT22;9921;47.186;9.778;2023-05-27T06:45:33;15.30;99.90
19552;DHT22;9921;47.186;9.778;2023-05-27T06:48:01;15.40;99.90
19552;DHT22;9921;47.186;9.778;2023-05-27T06:50:28;15.50;99.90
19552;DHT22;9921;47.186;9.778;2023-05-27T06:52:55;15.60;99.90
19552;DHT22;9921;47.186;9.778;2023-05-27T06:55:22;15.70;99.90
19552;DHT22;9921;47.186;9.778;2023-05-27T06:57:49;15.80;99.90
19552;DHT22;9921;47.186;9.778;2023-05-27T07:00:16;15.90;99.90
19552;DHT22;9921;47.186;9.778;2023-05-27T07:02:43;15.90;99.90
19552;DHT22;9921;47.186;9.778;2023-05-27T07:05:11;16.00;99.90
19552;DHT22;9921;47.186;9.778;2023-05-27T07:07:38;16.10;99.90
19552;DHT22;9921;47.186;9.778;2023-05-27T07:10:06;16.20;99.90
19552;DHT22;9921;47.186;9.778;2023-05-27T07:12:33;16.30;99.90
19552;DHT22;9921;47.186;9.778;2023-05-27T07:15:00;16.30;99.90
19552;DHT22;9921;47.186;9.778;2023-05-27T07:17:26;16.40;99.90
19552;DHT22;9921;47.186;9.778;2023-05-27T07:19:53;16.50;99.90
19552;DHT22;9921;47.186;9.778;2023-05-27T07:22:22;16.60;99.90
19552;DHT22;9921;47.186;9.778;2023-05-27T07:24:49;16.70;99.90
19552;DHT22;9921;47.186;9.778;2023-05-27T07:27:16;16.70;99.90
19552;DHT22;9921;47.186;9.778;2023-05-27T07:29:43;16.90;99.90
19552;DHT22;9921;47.186;9.778;2023-05-27T07:32:10;17.00;99.90
19552;DHT22;9921;47.186;9.778;2023-05-27T07:34:36;17.10;99.90
19552;DHT22;9921;47.186;9.778;2023-05-27T07:37:03;17.30;99.90
19552;DHT22;9921;47.186;9.778;2023-05-27T07:39:32;17.40;99.90
19552;DHT22;9921;47.186;9.778;2023-05-27T07:41:58;17.50;99.90
19552;DHT22;9921;47.186;9.778;2023-05-27T07:44:26;17.70;99.90
19552;DHT22;9921;47.186;9.778;2023-05-27T07:46:53;17.80;99.90
19552;DHT22;9921;47.186;9.778;2023-05-27T07:49:20;17.90;99.90
19552;DHT22;9921;47.186;9.778;2023-05-27T07:51:47;17.90;99.90
19552;DHT22;9921;47.186;9.778;2023-05-27T07:54:14;18.10;99.90
19552;DHT22;9921;47.186;9.778;2023-05-27T07:56:42;18.20;99.90
19552;DHT22;9921;47.186;9.778;2023-05-27T07:59:09;18.30;99.90
19552;DHT22;9921;47.186;9.778;2023-05-27T08:01:36;18.40;99.90
19552;DHT22;9921;47.186;9.778;2023-05-27T08:04:02;18.50;99.90
19552;DHT22;9921;47.186;9.778;2023-05-27T08:06:29;18.70;99.90
19552;DHT22;9921;47.186;9.778;2023-05-27T08:08:56;18.70;99.90
19552;DHT22;9921;47.186;9.778;2023-05-27T08:11:23;18.80;99.90
19552;DHT22;9921;47.186;9.778;2023-05-27T08:13:52;18.90;99.90
19552;DHT22;9921;47.186;9.778;2023-05-27T08:16:19;19.00;99.90
19552;DHT22;9921;47.186;9.778;2023-05-27T08:18:46;19.10;99.90
19552;DHT22;9921;47.186;9.778;2023-05-27T08:21:13;19.20;99.90
19552;DHT22;9921;47.186;9.778;2023-05-27T08:23:39;19.30;99.90
19552;DHT22;9921;47.186;9.778;2023-05-27T08:26:06;19.50;99.90
19552;DHT22;9921;47.186;9.778;2023-05-27T08:28:33;19.60;99.90
19552;DHT22;9921;47.186;9.778;2023-05-27T08:31:04;19.70;99.90
19552;DHT22;9921;47.186;9.778;2023-05-27T08:33:31;19.70;99.90
19552;DHT22;9921;47.186;9.778;2023-05-27T08:35:58;19.80;99.90
19552;DHT22;9921;47.186;9.778;2023-05-27T08:38:25;20.00;99.90
19552;DHT22;9921;47.186;9.778;2023-05-27T08:40:52;20.10;99.90
19552;DHT22;9921;47.186;9.778;2023-05-27T08:43:20;20.30;99.90
19552;DHT22;9921;47.186;9.778;2023-05-27T08:45:48;20.40;99.90
19552;DHT22;9921;47.186;9.778;2023-05-27T08:48:16;20.50;99.90
19552;DHT22;9921;47.186;9.778;2023-05-27T08:50:43;20.70;99.90
19552;DHT22;9921;47.186;9.778;2023-05-27T08:53:11;20.90;99.90
19552;DHT22;9921;47.186;9.778;2023-05-27T08:55:39;21.10;99.90
19552;DHT22;9921;47.186;9.778;2023-05-27T08:58:07;21.30;99.90
19552;DHT22;9921;47.186;9.778;2023-05-27T09:00:36;21.40;99.90
19552;DHT22;9921;47.186;9.778;2023-05-27T09:03:03;21.60;99.90
19552;DHT22;9921;47.186;9.778;2023-05-27T09:05:31;21.80;99.90
19552;DHT22;9921;47.186;9.778;2023-05-27T09:07:58;21.90;99.90
19552;DHT22;9921;47.186;9.778;2023-05-27T09:10:35;22.00;99.90
19552;DHT22;9921;47.186;9.778;2023-05-27T09:13:02;22.30;99.90
19552;DHT22;9921;47.186;9.778;2023-05-27T09:15:30;22.60;99.90
19552;DHT22;9921;47.186;9.778;2023-05-27T09:17:58;22.80;99.90
19552;DHT22;9921;47.186;9.778;2023-05-27T09:20:25;23.00;99.90
19552;DHT22;9921;47.186;9.778;2023-05-27T09:22:58;23.30;99.90
19552;DHT22;9921;47.186;9.778;2023-05-27T09:25:26;23.50;99.90
19552;DHT22;9921;47.186;9.778;2023-05-27T09:27:53;23.80;99.90
19552;DHT22;9921;47.186;9.778;2023-05-27T09:30:21;24.00;99.90
19552;DHT22;9921;47.186;9.778;2023-05-27T09:32:48;24.20;99.90
19552;DHT22;9921;47.186;9.778;2023-05-27T09:35:16;24.40;99.90
19552;DHT22;9921;47.186;9.778;2023-05-27T09:37:43;24.80;99.90
19552;DHT22;9921;47.186;9.778;2023-05-27T09:40:13;25.20;99.90
19552;DHT22;9921;47.186;9.778;2023-05-27T09:42:41;25.40;99.90
19552;DHT22;9921;47.186;9.778;2023-05-27T09:45:11;25.70;99.90
19552;DHT22;9921;47.186;9.778;2023-05-27T09:47:39;26.00;99.90
19552;DHT22;9921;47.186;9.778;2023-05-27T09:50:08;26.30;99.90
19552;DHT22;9921;47.186;9.778;2023-05-27T09:52:36;26.50;99.90
19552;DHT22;9921;47.186;9.778;2023-05-27T09:55:06;26.60;99.90
19552;DHT22;9921;47.186;9.778;2023-05-27T09:57:35;26.80;99.90
19552;DHT22;9921;47.186;9.778;2023-05-27T10:00:03;27.10;99.90
19552;DHT22;9921;47.186;9.778;2023-05-27T10:02:35;27.40;99.90
19552;DHT22;9921;47.186;9.778;2023-05-27T10:05:03;27.60;99.90
19552;DHT22;9921;47.186;9.778;2023-05-27T10:07:35;27.90;99.90
19552;DHT22;9921;47.186;9.778;2023-05-27T10:10:04;28.40;99.90
19552;DHT22;9921;47.186;9.778;2023-05-27T10:12:33;28.60;99.90
19552;DHT22;9921;47.186;9.778;2023-05-27T10:15:01;28.60;99.90
19552;DHT22;9921;47.186;9.778;2023-05-27T10:17:27;28.80;99.90
19552;DHT22;9921;47.186;9.778;2023-05-27T10:19:56;28.70;99.90
19552;DHT22;9921;47.186;9.778;2023-05-27T10:22:23;28.90;99.90
19552;DHT22;9921;47.186;9.778;2023-05-27T10:24:50;29.00;99.90
19552;DHT22;9921;47.186;9.778;2023-05-27T10:27:19;29.30;99.90
19552;DHT22;9921;47.186;9.778;2023-05-27T10:29:57;29.50;99.90
19552;DHT22;9921;47.186;9.778;2023-05-27T10:32:24;29.70;99.90
19552;DHT22;9921;47.186;9.778;2023-05-27T10:34:52;29.90;99.90
19552;DHT22;9921;47.186;9.778;2023-05-27T10:37:21;29.90;99.90
19552;DHT22;9921;47.186;9.778;2023-05-27T10:39:55;30.00;99.90
19552;DHT22;9921;47.186;9.778;2023-05-27T10:42:22;30.00;99.90
19552;DHT22;9921;47.186;9.778;2023-05-27T10:45:03;30.00;99.90
19552;DHT22;9921;47.186;9.778;2023-05-27T10:47:33;29.90;99.90
19552;DHT22;9921;47.186;9.778;2023-05-27T10:50:10;30.10;99.90
19552;DHT22;9921;47.186;9.778;2023-05-27T10:52:38;30.00;99.90
19552;DHT22;9921;47.186;9.778;2023-05-27T10:55:06;29.90;99.90
19552;DHT22;9921;47.186;9.778;2023-05-27T10:57:33;30.20;99.90
19552;DHT22;9921;47.186;9.778;2023-05-27T11:00:03;29.90;99.90
19552;DHT22;9921;47.186;9.778;2023-05-27T11:02:35;29.70;99.90
19552;DHT22;9921;47.186;9.778;2023-05-27T11:05:08;29.50;99.90
19552;DHT22;9921;47.186;9.778;2023-05-27T11:07:37;29.60;99.90
19552;DHT22;9921;47.186;9.778;2023-05-27T11:10:06;29.50;99.90
19552;DHT22;9921;47.186;9.778;2023-05-27T11:12:34;29.40;99.90
19552;DHT22;9921;47.186;9.778;2023-05-27T11:15:03;29.40;99.90
19552;DHT22;9921;47.186;9.778;2023-05-27T11:17:30;29.50;99.90
19552;DHT22;9921;47.186;9.778;2023-05-27T11:19:57;29.50;99.90
19552;DHT22;9921;47.186;9.778;2023-05-27T11:22:24;29.60;99.90
19552;DHT22;9921;47.186;9.778;2023-05-27T11:24:58;29.40;99.90
19552;DHT22;9921;47.186;9.778;2023-05-27T11:27:32;29.40;99.90
19552;DHT22;9921;47.186;9.778;2023-05-27T11:29:59;29.10;99.90
19552;DHT22;9921;47.186;9.778;2023-05-27T11:32:33;29.10;99.90
19552;DHT22;9921;47.186;9.778;2023-05-27T11:35:00;29.10;99.90
19552;DHT22;9921;47.186;9.778;2023-05-27T11:37:31;29.00;99.90
19552;DHT22;9921;47.186;9.778;2023-05-27T11:39:58;28.70;99.90
19552;DHT22;9921;47.186;9.778;2023-05-27T11:42:25;28.70;99.90
19552;DHT22;9921;47.186;9.778;2023-05-27T11:44:54;28.60;99.90
19552;DHT22;9921;47.186;9.778;2023-05-27T11:47:22;28.40;99.90
19552;DHT22;9921;47.186;9.778;2023-05-27T11:49:51;28.40;99.90
19552;DHT22;9921;47.186;9.778;2023-05-27T11:52:18;28.10;99.90
19552;DHT22;9921;47.186;9.778;2023-05-27T11:54:49;27.80;99.90
19552;DHT22;9921;47.186;9.778;2023-05-27T11:57:16;27.70;99.90
19552;DHT22;9921;47.186;9.778;2023-05-27T11:59:43;27.70;99.90
19552;DHT22;9921;47.186;9.778;2023-05-27T12:02:09;27.60;99.90
19552;DHT22;9921;47.186;9.778;2023-05-27T12:04:37;27.50;99.90
19552;DHT22;9921;47.186;9.778;2023-05-27T12:07:05;27.50;99.90
19552;DHT22;9921;47.186;9.778;2023-05-27T12:09:32;27.40;99.90
19552;DHT22;9921;47.186;9.778;2023-05-27T12:11:59;27.40;99.90
19552;DHT22;9921;47.186;9.778;2023-05-27T12:14:26;27.40;99.90
19552;DHT22;9921;47.186;9.778;2023-05-27T12:16:53;27.30;99.90
19552;DHT22;9921;47.186;9.778;2023-05-27T12:19:19;27.20;99.90
19552;DHT22;9921;47.186;9.778;2023-05-27T12:21:46;27.10;99.90
19552;DHT22;9921;47.186;9.778;2023-05-27T12:24:14;27.10;99.90
19552;DHT22;9921;47.186;9.778;2023-05-27T12:26:41;27.10;99.90
19552;DHT22;9921;47.186;9.778;2023-05-27T12:29:10;27.10;99.90
19552;DHT22;9921;47.186;9.778;2023-05-27T12:31:37;27.10;99.90
19552;DHT22;9921;47.186;9.778;2023-05-27T12:34:04;27.10;99.90
19552;DHT22;9921;47.186;9.778;2023-05-27T12:36:31;27.20;99.90
19552;DHT22;9921;47.186;9.778;2023-05-27T12:38:59;27.20;99.90
19552;DHT22;9921;47.186;9.778;2023-05-27T12:41:27;27.20;99.90
19552;DHT22;9921;47.186;9.778;2023-05-27T12:43:54;27.20;99.90
19552;DHT22;9921;47.186;9.778;2023-05-27T12:46:21;27.30;99.90
19552;DHT22;9921;47.186;9.778;2023-05-27T12:48:47;27.30;99.90
19552;DHT22;9921;47.186;9.778;2023-05-27T12:51:15;27.10;99.90
19552;DHT22;9921;47.186;9.778;2023-05-27T12:53:42;27.10;99.90
19552;DHT22;9921;47.186;9.778;2023-05-27T12:56:10;27.20;99.90
19552;DHT22;9921;47.186;9.778;2023-05-27T12:58:38;27.20;99.90
19552;DHT22;9921;47.186;9.778;2023-05-27T13:01:05;27.20;99.90
19552;DHT22;9921;47.186;9.778;2023-05-27T13:03:32;27.10;99.90
19552;DHT22;9921;47.186;9.778;2023-05-27T13:05:59;27.10;99.90
19552;DHT22;9921;47.186;9.778;2023-05-27T13:08:26;27.10;99.90
19552;DHT22;9921;47.186;9.778;2023-05-27T13:10:53;27.10;99.90
19552;DHT22;9921;47.186;9.778;2023-05-27T13:13:20;27.10;99.90
19552;DHT22;9921;47.186;9.778;2023-05-27T13:15:49;27.00;99.90
19552;DHT22;9921;47.186;9.778;2023-05-27T13:18:15;27.00;99.90
19552;DHT22;9921;47.186;9.778;2023-05-27T13:20:42;27.00;99.90
19552;DHT22;9921;47.186;9.778;2023-05-27T13:23:10;27.00;99.90
19552;DHT22;9921;47.186;9.778;2023-05-27T13:25:37;26.90;99.90
19552;DHT22;9921;47.186;9.778;2023-05-27T13:28:04;26.90;99.90
19552;DHT22;9921;47.186;9.778;2023-05-27T13:30:31;26.70;99.90
19552;DHT22;9921;47.186;9.778;2023-05-27T13:32:59;26.70;99.90
19552;DHT22;9921;47.186;9.778;2023-05-27T13:35:27;26.60;99.90
19552;DHT22;9921;47.186;9.778;2023-05-27T13:37:54;26.70;99.90
19552;DHT22;9921;47.186;9.778;2023-05-27T13:40:21;26.70;99.90
19552;DHT22;9921;47.186;9.778;2023-05-27T13:42:48;26.80;99.90
19552;DHT22;9921;47.186;9.778;2023-05-27T13:45:15;26.80;99.90
19552;DHT22;9921;47.186;9.778;2023-05-27T13:47:41;26.80;99.90
19552;DHT22;9921;47.186;9.778;2023-05-27T13:50:11;26.70;99.90
19552;DHT22;9921;47.186;9.778;2023-05-27T13:52:38;26.70;99.90
19552;DHT22;9921;47.186;9.778;2023-05-27T13:55:06;26.70;99.90
19552;DHT22;9921;47.186;9.778;2023-05-27T13:57:34;26.70;99.90
19552;DHT22;9921;47.186;9.778;2023-05-27T14:00:01;26.70;99.90
19552;DHT22;9921;47.186;9.778;2023-05-27T14:02:28;26.60;99.90
19552;DHT22;9921;47.186;9.778;2023-05-27T14:04:55;26.70;99.90
19552;DHT22;9921;47.186;9.778;2023-05-27T14:07:23;26.70;99.90
19552;DHT22;9921;47.186;9.778;2023-05-27T14:09:50;26.70;99.90
19552;DHT22;9921;47.186;9.778;2023-05-27T14:12:17;26.60;99.90
19552;DHT22;9921;47.186;9.778;2023-05-27T14:14:44;26.50;99.90
19552;DHT22;9921;47.186;9.778;2023-05-27T14:17:11;26.40;99.90
19552;DHT22;9921;47.186;9.778;2023-05-27T14:19:38;26.40;99.90
19552;DHT22;9921;47.186;9.778;2023-05-27T14:22:05;26.40;99.90
19552;DHT22;9921;47.186;9.778;2023-05-27T14:24:33;26.40;99.90
19552;DHT22;9921;47.186;9.778;2023-05-27T14:27:01;26.40;99.90
19552;DHT22;9921;47.186;9.778;2023-05-27T14:29:28;26.40;99.90
19552;DHT22;9921;47.186;9.778;2023-05-27T14:31:55;26.40;99.90
19552;DHT22;9921;47.186;9.778;2023-05-27T14:34:22;26.40;99.90
19552;DHT22;9921;47.186;9.778;2023-05-27T14:36:49;26.20;99.90
19552;DHT22;9921;47.186;9.778;2023-05-27T14:39:16;26.20;99.90
19552;DHT22;9921;47.186;9.778;2023-05-27T14:41:45;26.10;99.90
19552;DHT22;9921;47.186;9.778;2023-05-27T14:44:12;26.00;99.90
19552;DHT22;9921;47.186;9.778;2023-05-27T14:46:39;26.00;99.90
19552;DHT22;9921;47.186;9.778;2023-05-27T14:49:05;25.90;99.90
19552;DHT22;9921;47.186;9.778;2023-05-27T14:51:32;25.80;99.90
19552;DHT22;9921;47.186;9.778;2023-05-27T14:53:59;25.70;99.90
19552;DHT22;9921;47.186;9.778;2023-05-27T14:56:26;25.60;99.90
19552;DHT22;9921;47.186;9.778;2023-05-27T14:58:54;25.50;99.90
19552;DHT22;9921;47.186;9.778;2023-05-27T15:01:21;25.50;99.90
19552;DHT22;9921;47.186;9.778;2023-05-27T15:03:48;25.50;99.90
19552;DHT22;9921;47.186;9.778;2023-05-27T15:06:15;25.50;99.90
19552;DHT22;9921;47.186;9.778;2023-05-27T15:08:42;25.50;99.90
19552;DHT22;9921;47.186;9.778;2023-05-27T15:11:09;25.50;99.90
19552;DHT22;9921;47.186;9.778;2023-05-27T15:13:37;25.40;99.90
19552;DHT22;9921;47.186;9.778;2023-05-27T15:16:05;25.40;99.90
19552;DHT22;9921;47.186;9.778;2023-05-27T15:18:32;25.40;99.90
19552;DHT22;9921;47.186;9.778;2023-05-27T15:20:59;25.40;99.90
19552;DHT22;9921;47.186;9.778;2023-05-27T15:23:26;25.30;99.90
19552;DHT22;9921;47.186;9.778;2023-05-27T15:25:53;25.30;99.90
19552;DHT22;9921;47.186;9.778;2023-05-27T15:28:20;25.30;99.90
19552;DHT22;9921;47.186;9.778;2023-05-27T15:30:47;25.30;99.90
19552;DHT22;9921;47.186;9.778;2023-05-27T15:33:15;25.20;99.90
19552;DHT22;9921;47.186;9.778;2023-05-27T15:35:42;25.10;99.90
19552;DHT22;9921;47.186;9.778;2023-05-27T15:38:09;25.00;99.90
19552;DHT22;9921;47.186;9.778;2023-05-27T15:40:40;25.00;99.90
19552;DHT22;9921;47.186;9.778;2023-05-27T15:43:10;24.90;99.90
19552;DHT22;9921;47.186;9.778;2023-05-27T15:45:37;24.90;99.90
19552;DHT22;9921;47.186;9.778;2023-05-27T15:48:05;24.90;99.90